Terminal Aerodrome Forecast
Issued by NWS

Home | Current Version | Previous Version | Text Only | Print | Product List | Glossary Off
Versions: 1 2 3 4 5 6 7 8 9 10 11 12 13 14 15 16 17 18 19 20

061
FTUS43 KBIS 061540 AAA
TAFMOT
TAF AMD
KMOT 061540Z 0616/0712 31033G43KT 1/4SM SN BLSN OVC008
     FM061800 30030G41KT 1/2SM -SN BLSN OVC008
     FM062300 30024G34KT 1SM BLSN OVC025
     FM070500 29022G32KT 3SM BLSN OVC025
     FM071100 29020G28KT 4SM BLSN OVC020=

USA.gov is the U.S. government's official web portal to all federal, state and local government web resources and services.